Time;durP1;ratioP1;P1;durP2;ratioP2;P2;SDS_P1;SDS_P2;PMS_P1;PMS_P2;Temp;Humidity;BMP_temperature;BMP_pressure;BME280_temperature;BME280_humidity;BME280_pressure;Samples;Min_cycle;Max_cycle;Signal;HPM_P1;HPM_P2
2023/12/20 00:01:53;;;;;;;12.70;9.90;;;;;;;6.92;94.67;99670.80;112442;247;38328;-73
2023/12/20 00:04:27;;;;;;;12.50;10.40;;;;;;;6.90;94.70;99667.75;112455;247;38250;-73
2023/12/20 00:07:01;;;;;;;12.70;9.20;;;;;;;6.88;94.72;99663.48;112463;247;39339;-72
2023/12/20 00:09:35;;;;;;;11.20;9.40;;;;;;;6.86;94.75;99662.33;112457;247;39751;-72
2023/12/20 00:12:10;;;;;;;9.70;8.40;;;;;;;6.87;94.78;99662.13;112452;247;39039;-72
2023/12/20 00:14:45;;;;;;;10.60;8.80;;;;;;;6.88;94.92;99661.73;112288;246;154713;-72
2023/12/20 00:17:20;;;;;;;10.60;9.50;;;;;;;6.88;94.87;99654.98;112444;247;39412;-72
2023/12/20 00:19:54;;;;;;;10.10;9.00;;;;;;;6.87;94.94;99654.15;112447;247;38313;-75
2023/12/20 00:22:28;;;;;;;9.90;8.70;;;;;;;6.87;94.97;99654.83;112456;247;38295;-71
2023/12/20 00:25:02;;;;;;;10.30;8.30;;;;;;;6.87;94.85;99652.91;112472;247;38822;-71
2023/12/20 00:27:35;;;;;;;10.60;8.10;;;;;;;6.89;94.99;99653.55;112443;247;38291;-72
2023/12/20 00:30:12;;;;;;;10.10;9.10;;;;;;;6.91;94.96;99652.46;112470;247;39266;-72
2023/12/20 00:32:46;;;;;;;10.60;8.90;;;;;;;6.91;94.94;99651.92;112451;247;39464;-71
2023/12/20 00:35:20;;;;;;;11.30;9.30;;;;;;;6.93;95.02;99647.70;111751;247;904469;-71
2023/12/20 00:37:54;;;;;;;9.30;8.30;;;;;;;6.93;95.00;99647.35;112440;247;40062;-72
2023/12/20 00:40:29;;;;;;;11.40;8.70;;;;;;;6.92;94.64;99647.73;112347;248;38479;-73
2023/12/20 00:43:03;;;;;;;10.10;8.90;;;;;;;6.93;94.87;99647.33;112378;248;39736;-71
2023/12/20 00:45:37;;;;;;;11.30;9.70;;;;;;;6.96;95.07;99643.77;112451;248;38938;-70
2023/12/20 00:48:11;;;;;;;12.00;10.20;;;;;;;6.98;94.96;99641.45;112425;248;38329;-71
2023/12/20 00:50:45;;;;;;;13.50;10.30;;;;;;;6.98;94.95;99639.36;112429;247;38346;-70
2023/12/20 00:53:19;;;;;;;10.70;9.00;;;;;;;6.99;95.12;99633.96;112295;248;174953;-70
2023/12/20 00:55:52;;;;;;;11.50;8.60;;;;;;;7.00;94.79;99631.68;112426;247;38534;-73
2023/12/20 00:58:26;;;;;;;10.30;9.10;;;;;;;6.99;94.70;99628.95;112300;245;155449;-73
2023/12/20 01:01:00;;;;;;;11.20;9.10;;;;;;;7.02;95.13;99624.84;112458;247;38925;-72
2023/12/20 01:03:34;;;;;;;10.40;9.20;;;;;;;7.04;95.11;99622.52;112313;245;153766;-72
2023/12/20 01:06:08;;;;;;;12.40;9.60;;;;;;;7.02;94.92;99619.80;112444;247;39704;-72
2023/12/20 01:08:43;;;;;;;9.80;8.80;;;;;;;7.02;94.99;99623.81;112310;245;154823;-72
2023/12/20 01:11:17;;;;;;;10.70;8.20;;;;;;;7.00;94.80;99630.13;112425;247;38542;-70
2023/12/20 01:13:51;;;;;;;10.30;8.70;;;;;;;7.02;95.06;99620.35;112415;247;38533;-70
2023/12/20 01:16:24;;;;;;;9.60;8.60;;;;;;;7.06;95.21;99621.60;112104;245;245029;-72
2023/12/20 01:18:58;;;;;;;10.10;9.00;;;;;;;7.07;94.98;99623.80;112444;247;39472;-72
2023/12/20 01:21:32;;;;;;;11.30;9.00;;;;;;;7.05;94.96;99624.92;112281;245;154950;-69
2023/12/20 01:24:06;;;;;;;9.20;8.20;;;;;;;7.05;94.91;99621.45;112435;247;38489;-69
2023/12/20 01:26:40;;;;;;;9.30;8.20;;;;;;;7.06;95.03;99613.94;112326;245;154324;-69
2023/12/20 01:29:14;;;;;;;9.10;7.80;;;;;;;7.09;94.98;99613.16;112409;247;40097;-69
2023/12/20 01:31:48;;;;;;;8.70;7.80;;;;;;;7.10;94.92;99610.85;112441;247;39856;-73
2023/12/20 01:34:22;;;;;;;10.80;8.30;;;;;;;7.10;94.99;99605.67;112304;245;153401;-73
2023/12/20 01:36:56;;;;;;;9.30;8.30;;;;;;;7.10;94.99;99599.07;112455;247;39941;-69
2023/12/20 01:39:30;;;;;;;9.60;7.80;;;;;;;7.09;94.87;99596.49;112314;247;154375;-70
2023/12/20 01:42:04;;;;;;;8.60;7.50;;;;;;;7.07;94.87;99601.95;112475;247;39540;-72
2023/12/20 01:44:37;;;;;;;7.60;6.80;;;;;;;7.08;94.94;99598.95;112364;245;154557;-72
2023/12/20 01:47:12;;;;;;;7.30;6.60;;;;;;;7.10;94.93;99603.94;112414;247;38869;-70
2023/12/20 01:49:46;;;;;;;11.00;7.10;;;;;;;7.11;94.98;99601.11;112438;247;38527;-69
2023/12/20 01:52:19;;;;;;;8.50;7.70;;;;;;;7.12;95.10;99596.04;112284;245;154007;-70
2023/12/20 01:54:56;;;;;;;8.00;7.20;;;;;;;7.12;94.92;99597.61;112422;247;38400;-70
2023/12/20 01:57:30;;;;;;;8.40;6.60;;;;;;;7.11;94.83;99595.04;112323;245;154278;-70
2023/12/20 02:00:04;;;;;;;7.40;6.30;;;;;;;7.10;94.89;99590.39;112423;247;38766;-70
2023/12/20 02:02:38;;;;;;;8.30;6.20;;;;;;;7.10;94.71;99588.13;112343;245;154013;-69
2023/12/20 02:05:12;;;;;;;7.70;6.90;;;;;;;7.09;94.84;99590.58;112423;247;39499;-69
2023/12/20 02:07:46;;;;;;;7.20;6.20;;;;;;;7.07;94.71;99589.98;112433;247;39441;-72
2023/12/20 02:10:20;;;;;;;6.90;6.20;;;;;;;7.06;94.62;99587.09;112272;245;154362;-72
2023/12/20 02:12:54;;;;;;;7.50;6.00;;;;;;;7.05;94.79;99580.88;112459;247;38519;-72
2023/12/20 02:15:27;;;;;;;6.20;5.60;;;;;;;7.06;94.79;99580.14;112288;245;154550;-73
2023/12/20 02:18:02;;;;;;;6.60;5.80;;;;;;;7.08;94.93;99581.27;112448;247;38790;-72
2023/12/20 02:20:38;;;;;;;6.40;5.80;;;;;;;7.10;94.76;99575.67;112333;245;153451;-73
2023/12/20 02:23:12;;;;;;;6.20;5.50;;;;;;;7.11;95.04;99576.67;112391;247;38725;-73
2023/12/20 02:25:46;;;;;;;6.00;5.40;;;;;;;7.13;94.87;99569.11;112429;247;38780;-72
2023/12/20 02:28:21;;;;;;;5.80;5.10;;;;;;;7.16;94.96;99573.36;112253;245;155272;-72
2023/12/20 02:30:55;;;;;;;7.70;5.40;;;;;;;7.17;94.81;99564.98;112399;247;38242;-73
2023/12/20 02:33:29;;;;;;;5.70;5.10;;;;;;;7.16;94.54;99561.04;112267;247;153530;-74
2023/12/20 02:36:03;;;;;;;6.00;5.30;;;;;;;7.14;94.46;99552.41;112457;247;39005;-73
2023/12/20 02:38:36;;;;;;;8.10;5.80;;;;;;;7.08;94.17;99552.31;112327;245;153882;-74
2023/12/20 02:41:10;;;;;;;6.90;5.00;;;;;;;7.02;94.05;99558.79;112426;247;39004;-72
2023/12/20 02:43:44;;;;;;;7.00;5.40;;;;;;;6.98;94.14;99548.69;112462;247;38511;-72
2023/12/20 02:46:18;;;;;;;5.80;4.90;;;;;;;7.01;94.65;99550.15;112189;245;175561;-72
2023/12/20 02:48:52;;;;;;;6.30;5.20;;;;;;;7.03;94.61;99552.30;112451;247;38481;-72
2023/12/20 02:51:26;;;;;;;7.20;5.70;;;;;;;7.06;94.91;99548.74;112339;245;153914;-70
2023/12/20 02:54:00;;;;;;;5.90;4.90;;;;;;;7.09;95.08;99546.36;112421;247;38708;-70
2023/12/20 02:56:33;;;;;;;6.30;5.10;;;;;;;7.11;95.03;99543.00;112315;245;154408;-71
2023/12/20 02:59:08;;;;;;;5.20;4.70;;;;;;;7.14;94.99;99541.52;112399;247;38387;-71
2023/12/20 03:01:46;;;;;;;4.90;4.40;;;;;;;7.15;94.89;99545.61;112480;247;38504;-71
2023/12/20 03:04:19;;;;;;;6.10;4.60;;;;;;;7.16;94.76;99544.20;112318;245;153982;-71
2023/12/20 03:06:54;;;;;;;5.70;4.60;;;;;;;7.14;94.67;99536.31;112438;247;39501;-71
2023/12/20 03:09:27;;;;;;;5.00;4.50;;;;;;;7.11;94.50;99536.39;112285;245;153536;-71
2023/12/20 03:12:01;;;;;;;5.60;4.70;;;;;;;7.09;94.50;99535.98;112450;247;38021;-72
2023/12/20 03:14:35;;;;;;;4.70;4.20;;;;;;;7.08;94.49;99535.33;112314;245;156058;-72
2023/12/20 03:17:09;;;;;;;4.80;4.10;;;;;;;7.06;94.70;99532.08;112444;247;39818;-71
2023/12/20 03:19:43;;;;;;;6.10;4.90;;;;;;;7.06;94.39;99523.23;112419;247;38363;-71
2023/12/20 03:22:17;;;;;;;5.80;4.90;;;;;;;7.03;94.47;99531.86;112291;245;153282;-73
2023/12/20 03:24:50;;;;;;;5.50;4.40;;;;;;;7.05;94.87;99542.20;112432;247;38820;-73
2023/12/20 03:27:24;;;;;;;5.40;3.90;;;;;;;7.05;94.69;99539.95;112296;245;154100;-71
2023/12/20 03:29:58;;;;;;;5.10;4.10;;;;;;;7.05;94.69;99538.73;111713;247;905767;-71
2023/12/20 03:32:32;;;;;;;4.50;4.10;;;;;;;7.07;95.02;99535.88;112318;245;155701;-71
2023/12/20 03:35:06;;;;;;;5.60;4.10;;;;;;;7.10;94.93;99525.35;112398;247;40107;-71
2023/12/20 03:37:40;;;;;;;5.40;4.80;;;;;;;7.11;94.77;99529.84;112423;247;38426;-71
2023/12/20 03:40:15;;;;;;;4.60;4.10;;;;;;;7.13;95.04;99529.39;112279;245;153619;-71
2023/12/20 03:42:48;;;;;;;5.30;4.60;;;;;;;7.12;94.80;99519.02;112461;247;38524;-72
2023/12/20 03:45:22;;;;;;;4.30;3.90;;;;;;;7.12;94.63;99521.30;112305;245;155082;-72
2023/12/20 03:47:56;;;;;;;5.40;4.10;;;;;;;7.10;94.56;99522.73;112453;247;39539;-73
2023/12/20 03:50:30;;;;;;;4.60;4.10;;;;;;;7.11;94.75;99520.63;112306;245;154053;-73
2023/12/20 03:53:05;;;;;;;5.30;4.80;;;;;;;7.15;95.04;99524.98;112417;247;38673;-70
2023/12/20 03:55:38;;;;;;;5.60;4.40;;;;;;;7.17;94.95;99528.38;112453;247;38696;-72
2023/12/20 03:58:12;;;;;;;5.00;4.50;;;;;;;7.19;95.02;99527.09;112252;245;155337;-72
2023/12/20 04:00:46;;;;;;;4.60;4.20;;;;;;;7.21;94.97;99517.33;112443;247;38529;-73
2023/12/20 04:03:20;;;;;;;4.50;4.10;;;;;;;7.23;94.82;99511.50;112286;245;154309;-73
2023/12/20 04:05:54;;;;;;;5.00;4.50;;;;;;;7.25;94.82;99513.67;112410;247;39852;-72
2023/12/20 04:08:28;;;;;;;5.50;4.80;;;;;;;7.24;94.54;99521.70;112344;245;153543;-72
2023/12/20 04:11:02;;;;;;;6.00;4.80;;;;;;;7.20;94.21;99524.98;112409;247;38537;-71
2023/12/20 04:13:35;;;;;;;5.80;5.30;;;;;;;7.13;94.52;99518.45;112448;247;38260;-71
2023/12/20 04:16:10;;;;;;;5.90;5.10;;;;;;;7.12;94.49;99518.66;112337;247;154306;-71
2023/12/20 04:18:44;;;;;;;5.60;5.10;;;;;;;7.11;94.54;99520.81;112439;247;38569;-71
2023/12/20 04:21:17;;;;;;;5.70;5.20;;;;;;;7.11;94.46;99525.67;112315;247;154922;-71
2023/12/20 04:23:51;;;;;;;5.00;4.50;;;;;;;7.11;94.61;99520.47;112461;247;39057;-71
2023/12/20 04:26:25;;;;;;;6.30;5.70;;;;;;;7.11;94.72;99516.31;112360;245;154422;-73
2023/12/20 04:28:59;;;;;;;5.80;5.30;;;;;;;7.11;94.74;99516.80;112415;247;38435;-74
2023/12/20 04:31:33;;;;;;;5.40;4.90;;;;;;;7.09;94.70;99522.61;112463;247;39463;-71
2023/12/20 04:34:07;;;;;;;5.20;4.60;;;;;;;7.10;94.87;99519.63;112319;245;155163;-71
2023/12/20 04:36:41;;;;;;;5.10;4.20;;;;;;;7.10;94.75;99513.91;112466;247;38382;-72
2023/12/20 04:39:15;;;;;;;5.20;4.50;;;;;;;7.10;94.59;99517.90;112303;245;153751;-73
2023/12/20 04:41:50;;;;;;;5.10;4.60;;;;;;;7.09;94.53;99520.36;112302;247;174895;-72
2023/12/20 04:44:24;;;;;;;5.90;5.40;;;;;;;7.07;94.55;99520.60;112424;247;38401;-72
2023/12/20 04:46:58;;;;;;;5.10;4.70;;;;;;;7.05;94.70;99523.29;112444;247;38220;-73
2023/12/20 04:49:32;;;;;;;5.20;4.70;;;;;;;7.04;94.77;99522.10;112409;247;38318;-73
2023/12/20 04:52:07;;;;;;;5.40;4.80;;;;;;;7.05;94.80;99518.44;112449;247;39155;-72
2023/12/20 04:54:40;;;;;;;5.70;5.20;;;;;;;7.06;94.80;99519.95;112414;247;38404;-72
2023/12/20 04:57:14;;;;;;;5.70;5.10;;;;;;;7.06;94.48;99520.13;112315;245;154813;-71
2023/12/20 04:59:48;;;;;;;5.70;5.20;;;;;;;7.04;94.62;99519.54;112408;247;38539;-71
2023/12/20 05:02:22;;;;;;;6.10;5.50;;;;;;;7.04;94.80;99520.73;112432;247;38394;-73
2023/12/20 05:04:56;;;;;;;6.40;5.30;;;;;;;7.03;94.63;99520.08;112414;249;38727;-71
2023/12/20 05:07:30;;;;;;;6.30;5.40;;;;;;;7.00;94.70;99512.71;112409;248;38349;-73
2023/12/20 05:10:05;;;;;;;6.70;5.80;;;;;;;6.99;94.67;99508.40;112270;245;154481;-73
2023/12/20 05:12:39;;;;;;;6.60;5.70;;;;;;;7.02;94.86;99513.01;112440;247;40034;-72
2023/12/20 05:15:13;;;;;;;6.50;5.90;;;;;;;7.02;94.73;99507.25;112289;245;153881;-72
2023/12/20 05:17:47;;;;;;;6.30;5.70;;;;;;;7.02;94.70;99495.48;112416;247;38422;-73
2023/12/20 05:20:21;;;;;;;7.20;6.50;;;;;;;7.02;94.88;99497.40;112426;247;38417;-73
2023/12/20 05:22:55;;;;;;;6.70;6.10;;;;;;;7.02;94.79;99500.68;112386;247;39587;-70
2023/12/20 05:25:29;;;;;;;7.10;6.40;;;;;;;6.99;94.59;99500.80;112440;247;38221;-70
2023/12/20 05:28:03;;;;;;;6.60;6.00;;;;;;;6.97;94.72;99498.26;112304;245;154121;-74
2023/12/20 05:30:38;;;;;;;6.80;6.20;;;;;;;6.99;95.02;99496.96;112464;247;38480;-72
2023/12/20 05:33:12;;;;;;;7.30;6.70;;;;;;;7.00;95.02;99496.57;112327;245;153925;-71
2023/12/20 05:35:46;;;;;;;7.50;6.80;;;;;;;7.00;95.06;99500.07;112429;247;38913;-71
2023/12/20 05:38:19;;;;;;;7.30;6.20;;;;;;;6.99;94.86;99499.77;112449;247;38449;-71
2023/12/20 05:40:53;;;;;;;7.10;6.40;;;;;;;6.97;94.88;99499.30;112404;247;39553;-73
2023/12/20 05:43:27;;;;;;;7.30;6.00;;;;;;;6.96;94.80;99494.48;112326;247;174952;-73
2023/12/20 05:46:01;;;;;;;6.30;5.80;;;;;;;6.97;95.03;99495.66;112270;245;153947;-72
2023/12/20 05:48:35;;;;;;;7.20;6.60;;;;;;;6.98;94.99;99495.11;112446;247;38646;-72
2023/12/20 05:51:09;;;;;;;7.50;6.80;;;;;;;6.98;95.18;99489.38;112336;247;154009;-72
2023/12/20 05:53:43;;;;;;;7.40;6.70;;;;;;;6.99;95.27;99492.31;112417;247;40187;-73
2023/12/20 05:56:17;;;;;;;7.60;6.90;;;;;;;7.00;95.25;99486.19;112387;247;39877;-71
2023/12/20 05:58:51;;;;;;;6.40;5.90;;;;;;;7.00;95.18;99487.56;112287;245;154133;-71
2023/12/20 06:01:25;;;;;;;7.20;6.50;;;;;;;7.02;95.32;99482.81;112329;247;174965;-72
2023/12/20 06:03:59;;;;;;;8.00;6.70;;;;;;;7.04;95.26;99482.41;112191;245;174951;-72
2023/12/20 06:06:33;;;;;;;8.10;7.30;;;;;;;7.04;95.21;99482.60;112420;247;38330;-73
2023/12/20 06:09:07;;;;;;;6.50;6.00;;;;;;;7.00;95.05;99487.56;112324;245;154393;-73
2023/12/20 06:11:41;;;;;;;7.00;6.30;;;;;;;6.98;95.02;99491.80;112468;247;38901;-73
2023/12/20 06:14:15;;;;;;;6.70;6.00;;;;;;;6.98;95.04;99494.77;112435;247;38728;-73
2023/12/20 06:16:49;;;;;;;6.60;6.00;;;;;;;6.98;95.05;99495.64;112317;245;153735;-72
2023/12/20 06:19:23;;;;;;;7.40;6.70;;;;;;;6.97;95.15;99494.42;112469;247;38303;-72
2023/12/20 06:21:57;;;;;;;6.60;5.80;;;;;;;6.96;95.11;99492.77;112327;245;153592;-73
2023/12/20 06:24:33;;;;;;;6.90;6.30;;;;;;;6.95;95.10;99492.09;112460;247;38220;-73
2023/12/20 06:27:07;;;;;;;6.90;6.20;;;;;;;6.94;95.01;99494.55;112342;245;154287;-71
2023/12/20 06:29:42;;;;;;;6.50;5.90;;;;;;;6.92;94.98;99495.30;112421;247;38430;-71
2023/12/20 06:32:16;;;;;;;7.20;6.50;;;;;;;6.93;95.08;99499.27;112480;247;38725;-73
2023/12/20 06:34:50;;;;;;;7.80;7.00;;;;;;;6.94;95.27;99499.57;112306;245;153999;-73
2023/12/20 06:37:24;;;;;;;7.40;6.70;;;;;;;6.93;95.16;99504.48;112406;247;38546;-73
2023/12/20 06:39:58;;;;;;;7.40;6.60;;;;;;;6.90;95.10;99502.33;112303;245;154009;-73
2023/12/20 06:42:32;;;;;;;7.00;6.30;;;;;;;6.88;94.98;99497.73;112476;247;38837;-72
2023/12/20 06:45:07;;;;;;;6.40;5.80;;;;;;;6.89;95.16;99495.98;112334;245;154305;-71
2023/12/20 06:47:41;;;;;;;6.30;5.80;;;;;;;6.88;95.05;99501.02;112437;247;38919;-72
2023/12/20 06:50:15;;;;;;;6.60;6.00;;;;;;;6.88;95.14;99504.50;112494;247;38604;-72
2023/12/20 06:52:49;;;;;;;6.80;6.20;;;;;;;6.88;95.40;99504.67;112332;245;154344;-72
2023/12/20 06:55:22;;;;;;;6.70;6.00;;;;;;;6.90;95.37;99500.59;112466;247;38710;-73
2023/12/20 06:57:57;;;;;;;6.00;5.50;;;;;;;6.89;95.25;99499.08;112328;245;155113;-73
2023/12/20 07:00:31;;;;;;;5.60;5.10;;;;;;;6.91;95.37;99497.96;112478;247;39887;-73
2023/12/20 07:03:05;;;;;;;5.90;5.30;;;;;;;6.93;95.27;99497.54;112350;247;153916;-72
2023/12/20 07:05:40;;;;;;;6.50;5.90;;;;;;;6.94;95.43;99497.67;112443;247;38661;-73
2023/12/20 07:08:17;;;;;;;6.50;5.90;;;;;;;6.95;95.34;99493.52;112499;247;38278;-74
2023/12/20 07:10:51;;;;;;;6.20;5.70;;;;;;;6.95;95.32;99496.27;112289;245;153925;-71
2023/12/20 07:13:25;;;;;;;5.80;5.20;;;;;;;6.95;95.36;99493.14;112498;247;39504;-71
2023/12/20 07:15:59;;;;;;;5.90;5.30;;;;;;;6.96;95.26;99498.30;112316;245;154003;-72
2023/12/20 07:18:33;;;;;;;6.20;5.60;;;;;;;6.97;95.17;99499.48;112479;247;39274;-72
2023/12/20 07:21:08;;;;;;;7.40;6.70;;;;;;;6.98;95.42;99502.73;112351;245;153628;-72
2023/12/20 07:23:42;;;;;;;7.60;6.70;;;;;;;6.99;95.34;99504.45;112405;247;38234;-72
2023/12/20 07:26:16;;;;;;;7.80;6.40;;;;;;;6.99;95.45;99509.79;112454;247;38516;-73
2023/12/20 07:28:50;;;;;;;8.40;6.80;;;;;;;7.00;95.38;99510.46;112258;246;153653;-73
2023/12/20 07:31:24;;;;;;;8.80;6.80;;;;;;;6.99;95.10;99508.25;112429;247;38786;-72
2023/12/20 07:33:58;;;;;;;7.30;6.60;;;;;;;7.00;95.35;99506.13;112315;245;153977;-72
2023/12/20 07:36:32;;;;;;;8.00;7.20;;;;;;;7.02;95.41;99506.08;112404;247;38170;-72
2023/12/20 07:39:06;;;;;;;7.70;7.00;;;;;;;7.00;95.29;99504.40;112317;245;154370;-72
2023/12/20 07:41:40;;;;;;;7.60;6.90;;;;;;;6.99;95.30;99501.29;112449;247;39527;-72
2023/12/20 07:44:15;;;;;;;8.50;6.70;;;;;;;6.99;95.25;99501.48;112464;247;39479;-72
2023/12/20 07:46:49;;;;;;;7.40;6.70;;;;;;;7.00;95.28;99499.38;112288;245;153914;-71
2023/12/20 07:49:24;;;;;;;7.90;7.20;;;;;;;7.02;95.31;99501.02;112432;247;38264;-71
2023/12/20 07:51:57;;;;;;;8.30;7.60;;;;;;;7.04;95.40;99501.11;112324;245;153360;-71
2023/12/20 07:54:31;;;;;;;8.00;7.30;;;;;;;7.02;95.15;99503.96;112430;247;38863;-71
2023/12/20 07:57:06;;;;;;;7.50;6.60;;;;;;;7.02;95.19;99498.79;112208;245;174922;-73
2023/12/20 07:59:40;;;;;;;7.10;6.40;;;;;;;6.99;95.02;99494.53;112413;247;38807;-74
2023/12/20 08:02:14;;;;;;;7.00;6.40;;;;;;;7.01;95.32;99492.23;112457;247;38754;-72
2023/12/20 08:04:47;;;;;;;6.80;6.20;;;;;;;7.04;95.34;99493.67;112315;245;153980;-70
2023/12/20 08:07:21;;;;;;;7.20;6.50;;;;;;;7.03;95.21;99495.59;112376;247;39710;-73
2023/12/20 08:09:56;;;;;;;6.80;6.10;;;;;;;7.04;95.37;99497.66;112164;245;175060;-73
2023/12/20 08:12:30;;;;;;;6.50;5.90;;;;;;;7.05;95.39;99495.73;112408;247;39287;-72
2023/12/20 08:15:05;;;;;;;6.70;5.60;;;;;;;7.06;95.36;99493.25;112291;245;154307;-71
2023/12/20 08:17:39;;;;;;;6.00;5.50;;;;;;;7.09;95.45;99493.65;112417;247;38342;-72
2023/12/20 08:20:14;;;;;;;6.20;5.60;;;;;;;7.14;95.54;99493.46;112450;247;38283;-72
2023/12/20 08:22:48;;;;;;;7.00;6.30;;;;;;;7.16;95.43;99493.91;112305;245;153218;-73
2023/12/20 08:25:22;;;;;;;5.90;5.30;;;;;;;7.14;95.19;99493.45;112313;247;174959;-74
2023/12/20 08:27:56;;;;;;;5.60;5.10;;;;;;;7.13;95.04;99488.13;112320;245;154786;-70
2023/12/20 08:30:33;;;;;;;5.70;5.20;;;;;;;7.10;94.90;99488.42;112449;247;38601;-70
2023/12/20 08:33:11;;;;;;;5.20;4.80;;;;;;;7.11;95.12;99480.21;112313;246;155267;-70
2023/12/20 08:35:45;;;;;;;5.40;4.90;;;;;;;7.15;95.27;99481.48;112423;247;39465;-73
2023/12/20 08:38:19;;;;;;;5.70;5.20;;;;;;;7.18;95.42;99478.73;112442;247;38280;-73
2023/12/20 08:40:53;;;;;;;5.40;4.90;;;;;;;7.18;95.22;99477.52;112416;247;39679;-72
2023/12/20 08:43:27;;;;;;;5.10;4.60;;;;;;;7.18;95.13;99482.36;112410;247;38565;-73
2023/12/20 08:46:01;;;;;;;5.10;4.70;;;;;;;7.19;94.97;99478.70;112316;245;155213;-70
2023/12/20 08:48:35;;;;;;;5.10;4.70;;;;;;;7.17;94.78;99479.45;112457;247;38260;-70
2023/12/20 08:51:09;;;;;;;5.10;4.60;;;;;;;7.17;94.92;99479.45;112330;245;153877;-71
2023/12/20 08:53:45;;;;;;;4.70;4.20;;;;;;;7.18;95.01;99479.06;112433;247;38324;-71
2023/12/20 08:56:19;;;;;;;5.20;4.70;;;;;;;7.17;94.91;99479.30;112300;247;189036;-71
2023/12/20 08:58:53;;;;;;;5.00;4.60;;;;;;;7.16;95.02;99480.21;112302;245;154953;-71
2023/12/20 09:01:27;;;;;;;5.20;4.70;;;;;;;7.17;95.02;99481.55;112464;247;38172;-70
2023/12/20 09:04:01;;;;;;;5.10;4.60;;;;;;;7.16;94.88;99477.24;112300;245;154427;-69
2023/12/20 09:06:35;;;;;;;5.90;5.00;;;;;;;7.17;95.06;99477.90;112414;247;39172;-70
2023/12/20 09:09:13;;;;;;;6.20;5.60;;;;;;;7.19;94.98;99475.73;112444;247;38720;-70
2023/12/20 09:11:50;;;;;;;6.10;5.50;;;;;;;7.17;94.95;99471.82;112437;247;38395;-72
2023/12/20 09:14:23;;;;;;;5.20;4.80;;;;;;;7.16;94.92;99469.45;111831;247;731497;-72
2023/12/20 09:16:58;;;;;;;5.30;4.80;;;;;;;7.17;95.03;99467.52;112287;246;154045;-70
2023/12/20 09:19:32;;;;;;;5.40;4.90;;;;;;;7.16;94.80;99463.20;112440;247;39625;-70
2023/12/20 09:22:06;;;;;;;5.50;5.00;;;;;;;7.15;94.84;99456.31;112335;245;153913;-72
2023/12/20 09:24:40;;;;;;;6.20;5.50;;;;;;;7.16;94.99;99452.98;112300;247;188986;-73
2023/12/20 09:27:14;;;;;;;6.10;5.50;;;;;;;7.15;94.89;99452.48;112270;245;153984;-70
2023/12/20 09:29:48;;;;;;;5.90;5.40;;;;;;;7.16;94.92;99451.25;112400;247;39481;-70
2023/12/20 09:32:22;;;;;;;5.60;5.10;;;;;;;7.14;94.86;99446.98;112402;247;39730;-72
2023/12/20 09:34:56;;;;;;;5.10;4.60;;;;;;;7.15;95.04;99440.70;112326;245;154060;-72
2023/12/20 09:37:31;;;;;;;5.60;5.10;;;;;;;7.16;95.01;99442.40;112452;247;38991;-73
2023/12/20 09:40:05;;;;;;;5.60;5.10;;;;;;;7.18;95.20;99441.43;112290;245;153628;-73
2023/12/20 09:42:44;;;;;;;6.40;5.80;;;;;;;7.17;95.09;99436.95;112450;247;40265;-72
2023/12/20 09:45:18;;;;;;;6.20;5.60;;;;;;;7.18;95.11;99441.44;112303;247;155241;-72
2023/12/20 09:47:53;;;;;;;6.10;5.50;;;;;;;7.19;95.21;99441.22;112383;247;38811;-73
2023/12/20 09:50:27;;;;;;;5.60;4.80;;;;;;;7.23;95.26;99436.21;112449;247;38914;-74
2023/12/20 09:53:04;;;;;;;5.50;5.00;;;;;;;7.25;95.19;99431.83;112186;247;153666;-73
2023/12/20 09:55:38;;;;;;;6.10;5.30;;;;;;;7.25;95.17;99433.35;112446;247;38549;-73
2023/12/20 09:58:12;;;;;;;5.70;5.00;;;;;;;7.25;95.06;99432.33;112290;245;153670;-74
2023/12/20 10:00:46;;;;;;;5.70;5.20;;;;;;;7.25;95.07;99425.57;112473;247;38274;-72
2023/12/20 10:03:21;;;;;;;5.50;4.90;;;;;;;7.24;94.87;99427.69;112293;245;154131;-71
2023/12/20 10:05:55;;;;;;;4.70;4.30;;;;;;;7.24;94.99;99424.90;112429;247;40070;-73
2023/12/20 15:44:12;;;;;;;10.50;7.20;;;;;;;4.03;100.00;99271.33;107767;271;606978;-73
2023/12/20 15:46:46;;;;;;;9.00;5.70;;;;;;;4.03;100.00;99261.48;110483;251;38403;-72
2023/12/20 15:49:21;;;;;;;10.40;5.70;;;;;;;4.07;100.00;99250.30;110398;248;153463;-72
2023/12/20 15:51:55;;;;;;;7.40;4.20;;;;;;;4.14;100.00;99249.08;110486;250;38284;-69
2023/12/20 15:54:29;;;;;;;8.20;4.80;;;;;;;4.22;100.00;99244.52;110396;247;153381;-71
2023/12/20 15:57:03;;;;;;;8.20;4.20;;;;;;;4.29;100.00;99242.23;110166;249;538387;-73
2023/12/20 15:59:37;;;;;;;6.80;4.60;;;;;;;4.38;100.00;99235.06;110767;249;38636;-72
2023/12/20 16:02:11;;;;;;;8.80;4.60;;;;;;;4.48;100.00;99228.54;110538;248;153227;-71
2023/12/20 16:04:45;;;;;;;6.90;4.60;;;;;;;4.57;100.00;99227.71;110684;249;39696;-71
2023/12/20 16:07:22;;;;;;;8.20;5.10;;;;;;;4.66;100.00;99230.55;110856;243;154371;-70
2023/12/20 16:09:56;;;;;;;7.30;4.50;;;;;;;4.74;100.00;99225.63;110965;246;38972;-68
2023/12/20 16:12:30;;;;;;;8.20;5.40;;;;;;;4.81;99.97;99221.95;110801;243;153059;-71
2023/12/20 16:15:08;;;;;;;8.70;4.60;;;;;;;4.86;99.81;99220.55;110882;246;38910;-71
2023/12/20 16:17:45;;;;;;;8.40;5.20;;;;;;;4.92;99.38;99223.83;110820;246;40294;-70
2023/12/20 16:20:19;;;;;;;9.30;4.60;;;;;;;4.96;99.00;99226.45;110753;245;39503;-68
2023/12/20 16:22:53;;;;;;;10.20;4.10;;;;;;;5.00;98.69;99225.64;110960;246;38797;-73
2023/12/20 16:25:27;;;;;;;6.20;4.20;;;;;;;5.05;98.80;99226.15;110777;243;153053;-73
2023/12/20 16:28:01;;;;;;;9.60;5.40;;;;;;;5.09;98.49;99223.61;110999;246;38248;-72
2023/12/20 16:30:36;;;;;;;7.90;4.50;;;;;;;5.11;98.14;99228.20;110814;243;154284;-71
2023/12/20 16:33:10;;;;;;;6.50;3.80;;;;;;;5.12;97.79;99228.17;110907;246;38995;-72
2023/12/20 16:35:47;;;;;;;7.70;4.20;;;;;;;5.11;97.36;99224.56;110990;246;40050;-70
2023/12/20 16:38:21;;;;;;;7.70;3.60;;;;;;;5.12;97.42;99217.25;110803;245;39925;-74
2023/12/20 16:40:55;;;;;;;10.20;4.30;;;;;;;5.15;97.28;99217.66;111015;246;38862;-74
2023/12/20 16:43:29;;;;;;;7.30;4.00;;;;;;;5.16;96.88;99215.38;110829;243;153676;-74
2023/12/20 16:46:03;;;;;;;9.10;4.60;;;;;;;5.16;96.49;99218.00;111150;244;39463;-73
2023/12/20 16:48:37;;;;;;;10.20;4.20;;;;;;;5.15;96.41;99220.64;111068;244;38482;-73
2023/12/20 16:51:11;;;;;;;8.00;4.00;;;;;;;5.14;96.09;99221.52;111083;244;38564;-70
2023/12/20 16:53:45;;;;;;;9.30;3.70;;;;;;;5.13;96.03;99219.48;110975;244;39192;-69
2023/12/20 16:56:19;;;;;;;8.80;4.30;;;;;;;5.15;95.89;99216.14;110868;242;153389;-73
2023/12/20 16:58:53;;;;;;;8.80;4.20;;;;;;;5.15;95.73;99210.05;110909;244;38259;-74
2023/12/20 17:01:29;;;;;;;8.60;4.30;;;;;;;5.15;95.70;99209.21;110934;241;153556;-70
2023/12/20 17:04:02;;;;;;;8.50;4.30;;;;;;;5.13;95.45;99203.73;111070;244;38302;-69
2023/12/20 17:06:36;;;;;;;8.90;4.00;;;;;;;5.12;95.22;99206.39;111012;243;189226;-73
2023/12/20 17:09:11;;;;;;;9.80;4.00;;;;;;;5.11;95.16;99205.70;111051;244;38907;-72
2023/12/20 17:11:45;;;;;;;7.60;3.90;;;;;;;5.13;95.23;99203.73;110981;244;41363;-74
2023/12/20 17:14:19;;;;;;;8.70;4.30;;;;;;;5.15;95.10;99207.48;110922;242;152751;-73
2023/12/20 17:16:53;;;;;;;9.70;4.90;;;;;;;5.15;95.04;99204.55;111017;244;38913;-71
2023/12/20 17:19:29;;;;;;;11.90;5.30;;;;;;;5.13;94.90;99206.85;111035;244;38350;-71
2023/12/20 17:22:04;;;;;;;10.10;4.70;;;;;;;5.12;94.82;99207.42;111015;244;39294;-70
2023/12/20 17:24:43;;;;;;;10.10;4.70;;;;;;;5.09;94.50;99199.38;110879;242;155158;-72
2023/12/20 17:27:19;;;;;;;7.70;4.70;;;;;;;5.10;94.46;99198.67;111054;244;38235;-74
2023/12/20 17:29:53;;;;;;;8.20;4.60;;;;;;;5.11;94.46;99195.18;111037;243;39498;-73
2023/12/20 17:32:27;;;;;;;9.20;4.20;;;;;;;5.10;94.30;99187.95;110800;241;175715;-68
2023/12/20 17:35:06;;;;;;;7.90;4.30;;;;;;;5.09;94.35;99182.11;110977;243;175850;-69
2023/12/20 17:37:42;;;;;;;8.00;4.60;;;;;;;5.07;94.15;99182.52;110972;241;154997;-74
2023/12/20 17:40:17;;;;;;;8.80;4.10;;;;;;;5.08;94.23;99187.66;111060;243;38831;-72
2023/12/20 17:42:53;;;;;;;10.40;4.50;;;;;;;5.09;94.17;99184.69;111005;244;38574;-71
2023/12/20 17:45:27;;;;;;;7.90;4.60;;;;;;;5.09;94.22;99177.42;111109;244;39062;-70